sensor_id;sensor_type;location;lat;lon;timestamp;P1;durP1;ratioP1;P2;durP2;ratioP2
11691;SDS011;33659;42.672;23.354;2022-10-31T00:00:20;5.45;;;3.10;;
11691;SDS011;33659;42.672;23.354;2022-10-31T00:02:46;3.25;;;2.65;;
11691;SDS011;33659;42.672;23.354;2022-10-31T00:05:13;3.53;;;3.17;;
11691;SDS011;33659;42.672;23.354;2022-10-31T00:07:41;4.85;;;3.13;;
11691;SDS011;33659;42.672;23.354;2022-10-31T00:10:08;4.70;;;3.10;;
11691;SDS011;33659;42.672;23.354;2022-10-31T00:12:35;4.22;;;3.10;;
11691;SDS011;33659;42.672;23.354;2022-10-31T00:15:02;5.05;;;2.78;;
11691;SDS011;33659;42.672;23.354;2022-10-31T00:17:29;2.78;;;2.35;;
11691;SDS011;33659;42.672;23.354;2022-10-31T00:19:55;4.30;;;3.15;;
11691;SDS011;33659;42.672;23.354;2022-10-31T00:22:22;4.28;;;2.95;;
11691;SDS011;33659;42.672;23.354;2022-10-31T00:24:50;3.95;;;2.75;;
11691;SDS011;33659;42.672;23.354;2022-10-31T00:27:17;5.78;;;2.97;;
11691;SDS011;33659;42.672;23.354;2022-10-31T00:29:43;3.40;;;2.72;;
11691;SDS011;33659;42.672;23.354;2022-10-31T00:32:10;5.80;;;2.92;;
11691;SDS011;33659;42.672;23.354;2022-10-31T00:34:37;4.07;;;3.45;;
11691;SDS011;33659;42.672;23.354;2022-10-31T00:37:03;3.95;;;3.13;;
11691;SDS011;33659;42.672;23.354;2022-10-31T00:39:30;5.35;;;2.72;;
11691;SDS011;33659;42.672;23.354;2022-10-31T00:41:58;5.45;;;3.08;;
11691;SDS011;33659;42.672;23.354;2022-10-31T00:44:24;3.90;;;2.70;;
11691;SDS011;33659;42.672;23.354;2022-10-31T00:46:51;4.10;;;3.13;;
11691;SDS011;33659;42.672;23.354;2022-10-31T00:49:18;5.53;;;2.95;;
11691;SDS011;33659;42.672;23.354;2022-10-31T00:51:44;6.50;;;2.97;;
11691;SDS011;33659;42.672;23.354;2022-10-31T00:54:11;5.32;;;3.13;;
11691;SDS011;33659;42.672;23.354;2022-10-31T00:56:38;3.85;;;3.17;;
11691;SDS011;33659;42.672;23.354;2022-10-31T00:59:06;5.47;;;2.88;;
11691;SDS011;33659;42.672;23.354;2022-10-31T01:01:32;4.10;;;2.92;;
11691;SDS011;33659;42.672;23.354;2022-10-31T01:03:59;6.10;;;3.20;;
11691;SDS011;33659;42.672;23.354;2022-10-31T01:06:26;5.07;;;3.15;;
11691;SDS011;33659;42.672;23.354;2022-10-31T01:08:53;5.40;;;3.25;;
11691;SDS011;33659;42.672;23.354;2022-10-31T01:11:21;6.00;;;3.00;;
11691;SDS011;33659;42.672;23.354;2022-10-31T01:13:49;8.95;;;3.00;;
11691;SDS011;33659;42.672;23.354;2022-10-31T01:16:19;4.82;;;3.17;;
11691;SDS011;33659;42.672;23.354;2022-10-31T01:18:47;4.18;;;3.10;;
11691;SDS011;33659;42.672;23.354;2022-10-31T01:21:15;8.55;;;3.30;;
11691;SDS011;33659;42.672;23.354;2022-10-31T01:23:42;7.63;;;3.20;;
11691;SDS011;33659;42.672;23.354;2022-10-31T01:26:10;9.35;;;3.20;;
11691;SDS011;33659;42.672;23.354;2022-10-31T01:28:39;5.03;;;4.07;;
11691;SDS011;33659;42.672;23.354;2022-10-31T01:31:11;5.53;;;2.90;;
11691;SDS011;33659;42.672;23.354;2022-10-31T01:33:39;4.35;;;3.33;;
11691;SDS011;33659;42.672;23.354;2022-10-31T01:36:16;7.13;;;3.45;;
11691;SDS011;33659;42.672;23.354;2022-10-31T01:38:45;8.98;;;5.22;;
11691;SDS011;33659;42.672;23.354;2022-10-31T01:41:12;10.52;;;5.85;;
11691;SDS011;33659;42.672;23.354;2022-10-31T01:43:44;8.90;;;5.38;;
11691;SDS011;33659;42.672;23.354;2022-10-31T01:46:12;7.47;;;5.78;;
11691;SDS011;33659;42.672;23.354;2022-10-31T01:48:43;9.55;;;5.82;;
11691;SDS011;33659;42.672;23.354;2022-10-31T01:51:10;8.55;;;6.00;;
11691;SDS011;33659;42.672;23.354;2022-10-31T01:53:41;9.57;;;5.50;;
11691;SDS011;33659;42.672;23.354;2022-10-31T01:56:09;11.18;;;5.50;;
11691;SDS011;33659;42.672;23.354;2022-10-31T01:58:36;10.35;;;6.70;;
11691;SDS011;33659;42.672;23.354;2022-10-31T02:01:04;7.15;;;4.80;;
11691;SDS011;33659;42.672;23.354;2022-10-31T02:03:30;6.95;;;4.78;;
11691;SDS011;33659;42.672;23.354;2022-10-31T02:05:59;5.75;;;4.55;;
11691;SDS011;33659;42.672;23.354;2022-10-31T02:08:27;8.93;;;5.05;;
11691;SDS011;33659;42.672;23.354;2022-10-31T02:10:55;9.20;;;4.70;;
11691;SDS011;33659;42.672;23.354;2022-10-31T02:13:24;7.13;;;5.50;;
11691;SDS011;33659;42.672;23.354;2022-10-31T02:15:51;13.40;;;5.55;;
11691;SDS011;33659;42.672;23.354;2022-10-31T02:18:19;7.28;;;5.05;;
11691;SDS011;33659;42.672;23.354;2022-10-31T02:20:48;7.50;;;5.03;;
11691;SDS011;33659;42.672;23.354;2022-10-31T02:26:50;8.13;;;4.93;;
11691;SDS011;33659;42.672;23.354;2022-10-31T02:29:32;6.35;;;4.70;;
11691;SDS011;33659;42.672;23.354;2022-10-31T02:32:20;10.82;;;5.03;;
11691;SDS011;33659;42.672;23.354;2022-10-31T02:34:52;6.75;;;4.80;;
11691;SDS011;33659;42.672;23.354;2022-10-31T02:37:25;7.80;;;5.07;;
11691;SDS011;33659;42.672;23.354;2022-10-31T02:39:59;7.80;;;4.45;;
11691;SDS011;33659;42.672;23.354;2022-10-31T02:42:32;6.47;;;4.60;;
11691;SDS011;33659;42.672;23.354;2022-10-31T02:45:06;6.25;;;4.43;;
11691;SDS011;33659;42.672;23.354;2022-10-31T02:47:39;8.10;;;4.88;;
11691;SDS011;33659;42.672;23.354;2022-10-31T02:50:08;7.35;;;4.85;;
11691;SDS011;33659;42.672;23.354;2022-10-31T02:52:40;7.32;;;4.25;;
11691;SDS011;33659;42.672;23.354;2022-10-31T02:55:11;6.88;;;5.47;;
11691;SDS011;33659;42.672;23.354;2022-10-31T02:57:59;10.55;;;5.28;;
11691;SDS011;33659;42.672;23.354;2022-10-31T03:00:28;11.32;;;4.32;;
11691;SDS011;33659;42.672;23.354;2022-10-31T03:03:03;7.72;;;5.00;;
11691;SDS011;33659;42.672;23.354;2022-10-31T03:05:40;8.63;;;4.75;;
11691;SDS011;33659;42.672;23.354;2022-10-31T03:08:14;8.15;;;4.65;;
11691;SDS011;33659;42.672;23.354;2022-10-31T03:10:50;11.15;;;4.93;;
11691;SDS011;33659;42.672;23.354;2022-10-31T03:13:21;6.57;;;4.13;;
11691;SDS011;33659;42.672;23.354;2022-10-31T03:15:56;6.70;;;4.32;;
11691;SDS011;33659;42.672;23.354;2022-10-31T03:18:33;7.57;;;4.53;;
11691;SDS011;33659;42.672;23.354;2022-10-31T03:21:04;7.93;;;4.45;;
11691;SDS011;33659;42.672;23.354;2022-10-31T03:23:36;5.88;;;4.20;;
11691;SDS011;33659;42.672;23.354;2022-10-31T03:26:05;8.77;;;4.65;;
11691;SDS011;33659;42.672;23.354;2022-10-31T03:28:34;13.20;;;4.47;;
11691;SDS011;33659;42.672;23.354;2022-10-31T03:31:05;7.25;;;4.40;;
11691;SDS011;33659;42.672;23.354;2022-10-31T03:33:36;6.78;;;4.07;;
11691;SDS011;33659;42.672;23.354;2022-10-31T03:36:07;9.48;;;4.72;;
11691;SDS011;33659;42.672;23.354;2022-10-31T03:38:37;6.32;;;4.50;;
11691;SDS011;33659;42.672;23.354;2022-10-31T03:41:05;6.88;;;4.45;;
11691;SDS011;33659;42.672;23.354;2022-10-31T03:43:38;7.47;;;4.47;;
11691;SDS011;33659;42.672;23.354;2022-10-31T03:46:09;8.80;;;5.15;;
11691;SDS011;33659;42.672;23.354;2022-10-31T03:48:37;9.80;;;4.60;;
11691;SDS011;33659;42.672;23.354;2022-10-31T03:51:06;7.68;;;4.82;;
11691;SDS011;33659;42.672;23.354;2022-10-31T03:53:38;6.40;;;5.03;;
11691;SDS011;33659;42.672;23.354;2022-10-31T03:56:11;7.72;;;5.32;;
11691;SDS011;33659;42.672;23.354;2022-10-31T03:58:47;9.75;;;5.25;;
11691;SDS011;33659;42.672;23.354;2022-10-31T04:01:18;5.85;;;5.07;;
11691;SDS011;33659;42.672;23.354;2022-10-31T04:03:48;7.85;;;5.53;;
11691;SDS011;33659;42.672;23.354;2022-10-31T04:06:16;7.55;;;5.30;;
11691;SDS011;33659;42.672;23.354;2022-10-31T04:08:45;13.48;;;6.13;;
11691;SDS011;33659;42.672;23.354;2022-10-31T04:11:16;11.20;;;5.20;;
11691;SDS011;33659;42.672;23.354;2022-10-31T04:13:47;12.43;;;5.88;;
11691;SDS011;33659;42.672;23.354;2022-10-31T04:16:15;8.18;;;5.78;;
11691;SDS011;33659;42.672;23.354;2022-10-31T04:18:43;8.40;;;6.05;;
11691;SDS011;33659;42.672;23.354;2022-10-31T04:21:11;11.93;;;6.15;;
11691;SDS011;33659;42.672;23.354;2022-10-31T04:23:37;9.73;;;5.32;;
11691;SDS011;33659;42.672;23.354;2022-10-31T04:26:04;9.95;;;5.88;;
11691;SDS011;33659;42.672;23.354;2022-10-31T04:28:31;9.02;;;5.40;;
11691;SDS011;33659;42.672;23.354;2022-10-31T04:30:59;12.20;;;5.32;;
11691;SDS011;33659;42.672;23.354;2022-10-31T04:33:25;10.00;;;5.68;;
11691;SDS011;33659;42.672;23.354;2022-10-31T04:35:52;7.25;;;5.10;;
11691;SDS011;33659;42.672;23.354;2022-10-31T04:38:20;13.00;;;5.63;;
11691;SDS011;33659;42.672;23.354;2022-10-31T04:40:47;12.23;;;5.95;;
11691;SDS011;33659;42.672;23.354;2022-10-31T04:43:14;11.90;;;6.13;;
11691;SDS011;33659;42.672;23.354;2022-10-31T04:45:40;8.50;;;6.10;;
11691;SDS011;33659;42.672;23.354;2022-10-31T04:48:07;10.35;;;6.05;;
11691;SDS011;33659;42.672;23.354;2022-10-31T04:50:34;11.18;;;5.68;;
11691;SDS011;33659;42.672;23.354;2022-10-31T04:53:01;11.98;;;6.32;;
11691;SDS011;33659;42.672;23.354;2022-10-31T04:55:29;9.90;;;4.90;;
11691;SDS011;33659;42.672;23.354;2022-10-31T04:57:55;20.15;;;8.38;;
11691;SDS011;33659;42.672;23.354;2022-10-31T05:00:23;11.30;;;5.95;;
11691;SDS011;33659;42.672;23.354;2022-10-31T05:02:51;10.35;;;5.95;;
11691;SDS011;33659;42.672;23.354;2022-10-31T05:05:19;12.25;;;6.65;;
11691;SDS011;33659;42.672;23.354;2022-10-31T05:07:47;9.65;;;6.15;;
11691;SDS011;33659;42.672;23.354;2022-10-31T05:10:16;12.77;;;7.38;;
11691;SDS011;33659;42.672;23.354;2022-10-31T05:12:49;8.60;;;6.65;;
11691;SDS011;33659;42.672;23.354;2022-10-31T05:15:17;8.88;;;6.15;;
11691;SDS011;33659;42.672;23.354;2022-10-31T05:17:44;11.15;;;6.07;;
11691;SDS011;33659;42.672;23.354;2022-10-31T05:20:12;12.68;;;7.05;;
11691;SDS011;33659;42.672;23.354;2022-10-31T05:22:41;10.13;;;6.88;;
11691;SDS011;33659;42.672;23.354;2022-10-31T05:25:08;10.82;;;7.40;;
11691;SDS011;33659;42.672;23.354;2022-10-31T05:27:37;9.75;;;6.35;;
11691;SDS011;33659;42.672;23.354;2022-10-31T05:30:07;11.18;;;7.50;;
11691;SDS011;33659;42.672;23.354;2022-10-31T05:32:36;13.02;;;6.53;;
11691;SDS011;33659;42.672;23.354;2022-10-31T05:35:04;9.70;;;6.55;;
11691;SDS011;33659;42.672;23.354;2022-10-31T05:37:33;13.73;;;6.93;;
11691;SDS011;33659;42.672;23.354;2022-10-31T05:39:59;13.57;;;6.85;;
11691;SDS011;33659;42.672;23.354;2022-10-31T05:42:26;14.00;;;6.82;;
11691;SDS011;33659;42.672;23.354;2022-10-31T05:44:53;11.43;;;6.57;;
11691;SDS011;33659;42.672;23.354;2022-10-31T05:47:21;12.60;;;6.65;;
11691;SDS011;33659;42.672;23.354;2022-10-31T05:49:47;12.10;;;6.93;;
11691;SDS011;33659;42.672;23.354;2022-10-31T05:52:14;10.73;;;6.70;;
11691;SDS011;33659;42.672;23.354;2022-10-31T05:54:41;8.73;;;6.35;;
11691;SDS011;33659;42.672;23.354;2022-10-31T05:57:07;12.73;;;6.75;;
11691;SDS011;33659;42.672;23.354;2022-10-31T05:59:34;11.32;;;6.43;;
11691;SDS011;33659;42.672;23.354;2022-10-31T06:02:01;15.50;;;7.20;;
11691;SDS011;33659;42.672;23.354;2022-10-31T06:04:29;15.57;;;6.60;;
11691;SDS011;33659;42.672;23.354;2022-10-31T06:06:56;12.35;;;6.70;;
11691;SDS011;33659;42.672;23.354;2022-10-31T06:09:22;11.02;;;7.80;;
11691;SDS011;33659;42.672;23.354;2022-10-31T06:11:49;12.13;;;7.35;;
11691;SDS011;33659;42.672;23.354;2022-10-31T06:14:16;9.13;;;6.45;;
11691;SDS011;33659;42.672;23.354;2022-10-31T06:16:42;13.25;;;6.72;;
11691;SDS011;33659;42.672;23.354;2022-10-31T06:19:09;12.45;;;7.10;;
11691;SDS011;33659;42.672;23.354;2022-10-31T06:21:37;12.25;;;7.07;;
11691;SDS011;33659;42.672;23.354;2022-10-31T06:24:04;11.07;;;6.80;;
11691;SDS011;33659;42.672;23.354;2022-10-31T06:26:31;13.40;;;6.63;;
11691;SDS011;33659;42.672;23.354;2022-10-31T06:28:57;10.95;;;7.10;;
11691;SDS011;33659;42.672;23.354;2022-10-31T06:31:24;19.30;;;7.80;;
11691;SDS011;33659;42.672;23.354;2022-10-31T06:33:51;19.80;;;7.43;;
11691;SDS011;33659;42.672;23.354;2022-10-31T06:36:17;9.07;;;6.85;;
11691;SDS011;33659;42.672;23.354;2022-10-31T06:38:45;13.93;;;8.90;;
11691;SDS011;33659;42.672;23.354;2022-10-31T06:41:12;13.55;;;7.57;;
11691;SDS011;33659;42.672;23.354;2022-10-31T06:43:39;14.52;;;8.32;;
11691;SDS011;33659;42.672;23.354;2022-10-31T06:46:05;20.75;;;10.68;;
11691;SDS011;33659;42.672;23.354;2022-10-31T06:48:32;18.63;;;9.63;;
11691;SDS011;33659;42.672;23.354;2022-10-31T06:50:59;15.52;;;10.20;;
11691;SDS011;33659;42.672;23.354;2022-10-31T06:53:27;18.50;;;10.20;;
11691;SDS011;33659;42.672;23.354;2022-10-31T06:55:56;16.95;;;9.23;;
11691;SDS011;33659;42.672;23.354;2022-10-31T06:58:23;16.40;;;9.55;;
11691;SDS011;33659;42.672;23.354;2022-10-31T07:00:49;20.15;;;9.15;;
11691;SDS011;33659;42.672;23.354;2022-10-31T07:03:16;17.88;;;10.90;;
11691;SDS011;33659;42.672;23.354;2022-10-31T07:05:45;16.90;;;8.10;;
11691;SDS011;33659;42.672;23.354;2022-10-31T07:08:12;11.07;;;7.88;;
11691;SDS011;33659;42.672;23.354;2022-10-31T07:10:40;10.80;;;7.57;;
11691;SDS011;33659;42.672;23.354;2022-10-31T07:13:10;13.10;;;7.88;;
11691;SDS011;33659;42.672;23.354;2022-10-31T07:15:38;15.80;;;8.43;;
11691;SDS011;33659;42.672;23.354;2022-10-31T07:18:07;12.65;;;8.63;;
11691;SDS011;33659;42.672;23.354;2022-10-31T07:20:34;12.38;;;7.95;;
11691;SDS011;33659;42.672;23.354;2022-10-31T07:23:02;16.73;;;7.93;;
11691;SDS011;33659;42.672;23.354;2022-10-31T07:25:29;15.15;;;8.07;;
11691;SDS011;33659;42.672;23.354;2022-10-31T07:27:55;15.52;;;7.82;;
11691;SDS011;33659;42.672;23.354;2022-10-31T07:30:24;12.75;;;7.97;;
11691;SDS011;33659;42.672;23.354;2022-10-31T07:32:50;17.15;;;8.68;;
11691;SDS011;33659;42.672;23.354;2022-10-31T07:35:18;14.23;;;8.38;;
11691;SDS011;33659;42.672;23.354;2022-10-31T07:37:46;13.45;;;8.73;;
11691;SDS011;33659;42.672;23.354;2022-10-31T07:40:13;17.95;;;8.23;;
11691;SDS011;33659;42.672;23.354;2022-10-31T07:42:40;17.67;;;10.77;;
11691;SDS011;33659;42.672;23.354;2022-10-31T07:45:09;11.48;;;8.68;;
11691;SDS011;33659;42.672;23.354;2022-10-31T07:47:40;13.02;;;8.85;;
11691;SDS011;33659;42.672;23.354;2022-10-31T07:50:07;11.60;;;8.73;;
11691;SDS011;33659;42.672;23.354;2022-10-31T07:52:34;12.15;;;8.15;;
11691;SDS011;33659;42.672;23.354;2022-10-31T07:55:01;9.98;;;7.78;;
11691;SDS011;33659;42.672;23.354;2022-10-31T07:57:28;20.67;;;9.32;;
11691;SDS011;33659;42.672;23.354;2022-10-31T07:59:55;16.90;;;9.18;;
11691;SDS011;33659;42.672;23.354;2022-10-31T08:02:22;14.27;;;9.82;;
11691;SDS011;33659;42.672;23.354;2022-10-31T08:04:50;15.45;;;8.65;;
11691;SDS011;33659;42.672;23.354;2022-10-31T08:07:17;13.40;;;7.75;;
11691;SDS011;33659;42.672;23.354;2022-10-31T08:09:43;15.27;;;8.98;;
11691;SDS011;33659;42.672;23.354;2022-10-31T08:12:10;15.95;;;9.13;;
11691;SDS011;33659;42.672;23.354;2022-10-31T08:14:37;13.38;;;8.82;;
11691;SDS011;33659;42.672;23.354;2022-10-31T08:17:04;16.33;;;9.60;;
11691;SDS011;33659;42.672;23.354;2022-10-31T08:19:30;12.65;;;10.00;;
11691;SDS011;33659;42.672;23.354;2022-10-31T08:21:58;15.13;;;9.30;;
11691;SDS011;33659;42.672;23.354;2022-10-31T08:24:25;14.88;;;9.43;;
11691;SDS011;33659;42.672;23.354;2022-10-31T08:26:52;14.02;;;8.68;;
11691;SDS011;33659;42.672;23.354;2022-10-31T08:29:18;24.63;;;10.32;;
11691;SDS011;33659;42.672;23.354;2022-10-31T08:31:45;18.20;;;10.02;;
11691;SDS011;33659;42.672;23.354;2022-10-31T08:34:12;15.98;;;9.30;;
11691;SDS011;33659;42.672;23.354;2022-10-31T08:36:38;13.50;;;9.00;;
11691;SDS011;33659;42.672;23.354;2022-10-31T08:39:06;15.20;;;9.20;;
11691;SDS011;33659;42.672;23.354;2022-10-31T08:41:33;16.33;;;8.65;;
11691;SDS011;33659;42.672;23.354;2022-10-31T08:44:00;12.98;;;9.45;;
11691;SDS011;33659;42.672;23.354;2022-10-31T08:46:27;15.70;;;8.52;;
11691;SDS011;33659;42.672;23.354;2022-10-31T08:48:53;13.10;;;8.45;;
11691;SDS011;33659;42.672;23.354;2022-10-31T08:51:20;14.02;;;8.80;;
11691;SDS011;33659;42.672;23.354;2022-10-31T08:53:47;15.50;;;8.52;;
11691;SDS011;33659;42.672;23.354;2022-10-31T08:56:15;15.52;;;8.30;;
11691;SDS011;33659;42.672;23.354;2022-10-31T08:58:41;13.25;;;8.57;;
11691;SDS011;33659;42.672;23.354;2022-10-31T09:01:08;13.00;;;8.52;;
11691;SDS011;33659;42.672;23.354;2022-10-31T09:03:35;16.13;;;9.10;;
11691;SDS011;33659;42.672;23.354;2022-10-31T09:06:02;15.93;;;8.57;;
11691;SDS011;33659;42.672;23.354;2022-10-31T09:08:33;13.52;;;8.70;;
11691;SDS011;33659;42.672;23.354;2022-10-31T09:11:01;14.52;;;8.82;;
11691;SDS011;33659;42.672;23.354;2022-10-31T09:13:29;15.98;;;8.88;;
11691;SDS011;33659;42.672;23.354;2022-10-31T09:15:56;10.70;;;8.15;;
11691;SDS011;33659;42.672;23.354;2022-10-31T09:18:23;16.02;;;7.70;;
11691;SDS011;33659;42.672;23.354;2022-10-31T09:20:52;15.68;;;8.77;;
11691;SDS011;33659;42.672;23.354;2022-10-31T09:23:20;15.43;;;8.32;;
11691;SDS011;33659;42.672;23.354;2022-10-31T09:25:49;16.15;;;8.75;;
11691;SDS011;33659;42.672;23.354;2022-10-31T09:28:17;14.38;;;8.93;;
11691;SDS011;33659;42.672;23.354;2022-10-31T09:30:47;13.98;;;8.45;;
11691;SDS011;33659;42.672;23.354;2022-10-31T09:33:17;12.75;;;8.45;;
11691;SDS011;33659;42.672;23.354;2022-10-31T09:35:44;13.15;;;7.20;;
11691;SDS011;33659;42.672;23.354;2022-10-31T09:38:11;13.57;;;6.88;;
11691;SDS011;33659;42.672;23.354;2022-10-31T09:40:41;9.70;;;6.35;;
11691;SDS011;33659;42.672;23.354;2022-10-31T09:43:14;14.00;;;7.50;;
11691;SDS011;33659;42.672;23.354;2022-10-31T09:45:50;10.73;;;7.57;;
11691;SDS011;33659;42.672;23.354;2022-10-31T09:48:28;11.25;;;6.85;;
11691;SDS011;33659;42.672;23.354;2022-10-31T09:51:04;8.13;;;5.18;;
11691;SDS011;33659;42.672;23.354;2022-10-31T09:53:35;11.73;;;5.65;;
11691;SDS011;33659;42.672;23.354;2022-10-31T09:56:06;10.60;;;6.28;;
11691;SDS011;33659;42.672;23.354;2022-10-31T09:58:39;9.90;;;5.90;;
11691;SDS011;33659;42.672;23.354;2022-10-31T10:01:14;8.57;;;4.85;;
11691;SDS011;33659;42.672;23.354;2022-10-31T10:03:49;7.70;;;4.97;;
11691;SDS011;33659;42.672;23.354;2022-10-31T10:06:21;5.70;;;4.80;;
11691;SDS011;33659;42.672;23.354;2022-10-31T10:08:50;11.40;;;4.80;;
11691;SDS011;33659;42.672;23.354;2022-10-31T10:11:20;8.88;;;5.57;;
11691;SDS011;33659;42.672;23.354;2022-10-31T10:14:03;9.15;;;5.35;;
11691;SDS011;33659;42.672;23.354;2022-10-31T10:16:44;14.50;;;5.60;;
11691;SDS011;33659;42.672;23.354;2022-10-31T10:19:33;10.60;;;4.50;;
11691;SDS011;33659;42.672;23.354;2022-10-31T10:22:12;4.05;;;3.20;;
11691;SDS011;33659;42.672;23.354;2022-10-31T10:24:52;5.70;;;3.25;;
11691;SDS011;33659;42.672;23.354;2022-10-31T10:27:34;5.60;;;3.55;;
11691;SDS011;33659;42.672;23.354;2022-10-31T10:30:12;4.38;;;3.50;;
11691;SDS011;33659;42.672;23.354;2022-10-31T10:32:43;3.75;;;3.35;;
11691;SDS011;33659;42.672;23.354;2022-10-31T10:35:17;3.72;;;3.28;;
11691;SDS011;33659;42.672;23.354;2022-10-31T10:37:49;6.50;;;3.10;;
11691;SDS011;33659;42.672;23.354;2022-10-31T10:40:19;6.03;;;3.25;;
11691;SDS011;33659;42.672;23.354;2022-10-31T10:42:50;9.23;;;4.38;;
11691;SDS011;33659;42.672;23.354;2022-10-31T10:45:40;5.72;;;3.38;;
11691;SDS011;33659;42.672;23.354;2022-10-31T10:48:29;6.72;;;3.60;;
11691;SDS011;33659;42.672;23.354;2022-10-31T10:51:03;5.47;;;3.47;;
11691;SDS011;33659;42.672;23.354;2022-10-31T10:53:37;8.05;;;3.90;;
11691;SDS011;33659;42.672;23.354;2022-10-31T10:56:29;5.07;;;3.30;;
11691;SDS011;33659;42.672;23.354;2022-10-31T10:59:04;8.25;;;3.38;;
11691;SDS011;33659;42.672;23.354;2022-10-31T11:01:30;8.00;;;3.65;;
11691;SDS011;33659;42.672;23.354;2022-10-31T11:03:59;9.07;;;3.83;;
11691;SDS011;33659;42.672;23.354;2022-10-31T11:06:29;6.32;;;3.35;;
11691;SDS011;33659;42.672;23.354;2022-10-31T11:08:56;4.97;;;3.05;;
11691;SDS011;33659;42.672;23.354;2022-10-31T11:11:23;4.18;;;3.35;;
11691;SDS011;33659;42.672;23.354;2022-10-31T11:13:55;4.07;;;2.88;;
11691;SDS011;33659;42.672;23.354;2022-10-31T11:16:30;5.97;;;3.03;;
11691;SDS011;33659;42.672;23.354;2022-10-31T11:19:08;6.75;;;2.90;;
11691;SDS011;33659;42.672;23.354;2022-10-31T11:21:42;5.70;;;2.78;;
11691;SDS011;33659;42.672;23.354;2022-10-31T11:24:14;9.60;;;3.08;;
11691;SDS011;33659;42.672;23.354;2022-10-31T11:26:43;5.25;;;2.67;;
11691;SDS011;33659;42.672;23.354;2022-10-31T11:29:13;6.43;;;3.22;;
11691;SDS011;33659;42.672;23.354;2022-10-31T11:31:41;5.97;;;4.13;;
11691;SDS011;33659;42.672;23.354;2022-10-31T11:34:21;10.60;;;3.38;;
11691;SDS011;33659;42.672;23.354;2022-10-31T11:36:54;5.38;;;3.53;;
11691;SDS011;33659;42.672;23.354;2022-10-31T11:39:26;4.47;;;2.80;;
11691;SDS011;33659;42.672;23.354;2022-10-31T11:41:53;7.05;;;4.07;;
11691;SDS011;33659;42.672;23.354;2022-10-31T11:44:21;3.70;;;2.92;;
11691;SDS011;33659;42.672;23.354;2022-10-31T11:46:50;10.00;;;2.97;;
11691;SDS011;33659;42.672;23.354;2022-10-31T11:49:27;7.80;;;2.70;;
11691;SDS011;33659;42.672;23.354;2022-10-31T11:51:56;3.88;;;2.90;;
11691;SDS011;33659;42.672;23.354;2022-10-31T11:54:26;6.10;;;3.13;;
11691;SDS011;33659;42.672;23.354;2022-10-31T11:56:55;6.85;;;2.85;;
11691;SDS011;33659;42.672;23.354;2022-10-31T11:59:24;4.35;;;2.90;;
11691;SDS011;33659;42.672;23.354;2022-10-31T12:01:53;9.70;;;3.65;;
11691;SDS011;33659;42.672;23.354;2022-10-31T12:04:29;6.60;;;2.80;;
11691;SDS011;33659;42.672;23.354;2022-10-31T12:07:01;10.27;;;3.05;;
11691;SDS011;33659;42.672;23.354;2022-10-31T12:09:28;7.47;;;3.05;;
11691;SDS011;33659;42.672;23.354;2022-10-31T12:12:00;4.25;;;2.55;;
11691;SDS011;33659;42.672;23.354;2022-10-31T12:14:36;4.43;;;2.92;;
11691;SDS011;33659;42.672;23.354;2022-10-31T12:17:14;6.80;;;3.45;;
11691;SDS011;33659;42.672;23.354;2022-10-31T12:19:49;9.43;;;2.78;;
11691;SDS011;33659;42.672;23.354;2022-10-31T12:22:35;4.60;;;2.80;;
11691;SDS011;33659;42.672;23.354;2022-10-31T12:25:15;5.50;;;2.38;;
11691;SDS011;33659;42.672;23.354;2022-10-31T12:27:56;4.70;;;2.40;;
11691;SDS011;33659;42.672;23.354;2022-10-31T12:30:30;5.88;;;2.72;;
11691;SDS011;33659;42.672;23.354;2022-10-31T12:36:08;6.13;;;3.28;;
11691;SDS011;33659;42.672;23.354;2022-10-31T12:38:48;6.55;;;3.60;;
11691;SDS011;33659;42.672;23.354;2022-10-31T12:41:36;7.78;;;2.80;;
11691;SDS011;33659;42.672;23.354;2022-10-31T12:44:13;6.07;;;2.50;;
11691;SDS011;33659;42.672;23.354;2022-10-31T12:46:59;4.10;;;2.97;;
11691;SDS011;33659;42.672;23.354;2022-10-31T12:49:40;6.55;;;3.05;;
11691;SDS011;33659;42.672;23.354;2022-10-31T12:52:19;6.35;;;2.63;;
11691;SDS011;33659;42.672;23.354;2022-10-31T12:55:02;8.18;;;2.65;;
11691;SDS011;33659;42.672;23.354;2022-10-31T12:57:38;4.60;;;2.80;;
11691;SDS011;33659;42.672;23.354;2022-10-31T13:00:11;8.15;;;2.80;;
11691;SDS011;33659;42.672;23.354;2022-10-31T13:02:42;5.63;;;2.80;;
11691;SDS011;33659;42.672;23.354;2022-10-31T13:05:16;5.07;;;2.63;;
11691;SDS011;33659;42.672;23.354;2022-10-31T13:07:52;5.88;;;2.80;;
11691;SDS011;33659;42.672;23.354;2022-10-31T13:10:24;7.65;;;2.83;;
11691;SDS011;33659;42.672;23.354;2022-10-31T13:12:57;8.20;;;3.33;;
11691;SDS011;33659;42.672;23.354;2022-10-31T13:15:29;8.63;;;3.60;;
11691;SDS011;33659;42.672;23.354;2022-10-31T13:18:03;5.80;;;3.67;;
11691;SDS011;33659;42.672;23.354;2022-10-31T13:20:38;8.02;;;2.83;;
11691;SDS011;33659;42.672;23.354;2022-10-31T13:23:10;5.47;;;3.08;;
11691;SDS011;33659;42.672;23.354;2022-10-31T13:25:44;3.13;;;2.35;;
11691;SDS011;33659;42.672;23.354;2022-10-31T13:28:19;6.63;;;2.95;;
11691;SDS011;33659;42.672;23.354;2022-10-31T13:30:51;5.82;;;2.90;;
11691;SDS011;33659;42.672;23.354;2022-10-31T13:33:19;3.75;;;2.50;;
11691;SDS011;33659;42.672;23.354;2022-10-31T13:35:51;5.15;;;2.78;;
11691;SDS011;33659;42.672;23.354;2022-10-31T13:38:26;9.07;;;3.03;;
11691;SDS011;33659;42.672;23.354;2022-10-31T13:41:01;9.00;;;3.38;;
11691;SDS011;33659;42.672;23.354;2022-10-31T13:43:34;6.78;;;2.63;;
11691;SDS011;33659;42.672;23.354;2022-10-31T13:46:22;8.25;;;3.30;;
11691;SDS011;33659;42.672;23.354;2022-10-31T13:48:50;6.93;;;3.08;;
11691;SDS011;33659;42.672;23.354;2022-10-31T13:51:24;4.57;;;2.30;;
11691;SDS011;33659;42.672;23.354;2022-10-31T13:53:58;5.28;;;2.42;;
11691;SDS011;33659;42.672;23.354;2022-10-31T13:56:27;7.82;;;3.22;;
11691;SDS011;33659;42.672;23.354;2022-10-31T13:59:00;6.03;;;2.63;;
11691;SDS011;33659;42.672;23.354;2022-10-31T14:01:29;6.55;;;2.90;;
11691;SDS011;33659;42.672;23.354;2022-10-31T14:04:02;4.05;;;2.47;;
11691;SDS011;33659;42.672;23.354;2022-10-31T14:06:34;23.88;;;6.10;;
11691;SDS011;33659;42.672;23.354;2022-10-31T14:09:05;5.07;;;3.05;;
11691;SDS011;33659;42.672;23.354;2022-10-31T14:11:45;5.30;;;2.83;;
11691;SDS011;33659;42.672;23.354;2022-10-31T14:14:13;10.45;;;3.42;;
11691;SDS011;33659;42.672;23.354;2022-10-31T14:16:42;5.50;;;3.03;;
11691;SDS011;33659;42.672;23.354;2022-10-31T14:19:13;4.85;;;2.88;;
11691;SDS011;33659;42.672;23.354;2022-10-31T14:21:43;7.43;;;2.92;;
11691;SDS011;33659;42.672;23.354;2022-10-31T14:24:16;9.63;;;3.97;;
11691;SDS011;33659;42.672;23.354;2022-10-31T14:27:03;10.73;;;3.13;;
11691;SDS011;33659;42.672;23.354;2022-10-31T14:29:51;9.15;;;3.42;;
11691;SDS011;33659;42.672;23.354;2022-10-31T14:32:19;12.80;;;3.50;;
11691;SDS011;33659;42.672;23.354;2022-10-31T14:34:52;4.25;;;3.25;;
11691;SDS011;33659;42.672;23.354;2022-10-31T14:37:48;6.10;;;3.10;;
11691;SDS011;33659;42.672;23.354;2022-10-31T14:40:39;4.18;;;2.85;;
11691;SDS011;33659;42.672;23.354;2022-10-31T14:46:18;6.05;;;2.80;;
11691;SDS011;33659;42.672;23.354;2022-10-31T14:49:02;7.15;;;3.30;;
11691;SDS011;33659;42.672;23.354;2022-10-31T14:51:40;5.40;;;2.53;;
11691;SDS011;33659;42.672;23.354;2022-10-31T14:54:10;8.77;;;3.55;;
11691;SDS011;33659;42.672;23.354;2022-10-31T14:56:43;5.57;;;2.90;;